Olten, Switzerland
Current Conditions -  °F | °C
As of 4:00 AM on Wednesday 26 Nov 2014 (Local Time) from LFSB Reporting Station
Light Fog Light Fog  
Wind Chill: 42°   Ceiling: Unl
Heat Index: 45°   Visibility: 0.62mi
Dew Point: 45°   Wind: 5mph
Humidity: 100%   Direction: 340°NNW
Pressure: 30"   Gusts: NA
Location:  47.37°N, 7.9°E
Report Text: LFSB 260300Z AUTO 34004KT 320V020 1000 0700 R15/P2000R33/1900D BCFG VV/// 07/07 Q1016
Loading
Personal Weather Stations






























Interactive Weather Map New forecast layout! Learn more

10-Day Weather Forecast

Advertisements
Track Severe Weather on mobile